sensor_id;sensor_type;location;lat;lon;timestamp;temperature;humidity
25953;DHT22;13750;50.804;8.764;2023-07-28T00:02:18;17.50;88.60
25953;DHT22;13750;50.804;8.764;2023-07-28T00:04:44;17.50;88.60
25953;DHT22;13750;50.804;8.764;2023-07-28T00:07:09;17.50;88.50
25953;DHT22;13750;50.804;8.764;2023-07-28T00:09:35;17.50;88.50
25953;DHT22;13750;50.804;8.764;2023-07-28T00:12:01;17.40;88.40
25953;DHT22;13750;50.804;8.764;2023-07-28T00:14:27;17.50;88.40
25953;DHT22;13750;50.804;8.764;2023-07-28T00:16:54;17.40;88.40
25953;DHT22;13750;50.804;8.764;2023-07-28T00:19:20;17.40;88.50
25953;DHT22;13750;50.804;8.764;2023-07-28T00:21:49;17.40;88.40
25953;DHT22;13750;50.804;8.764;2023-07-28T00:24:15;17.40;88.40
25953;DHT22;13750;50.804;8.764;2023-07-28T00:26:41;17.30;88.40
25953;DHT22;13750;50.804;8.764;2023-07-28T00:29:06;17.30;88.50
25953;DHT22;13750;50.804;8.764;2023-07-28T00:31:33;17.30;88.50
25953;DHT22;13750;50.804;8.764;2023-07-28T00:33:59;17.30;88.40
25953;DHT22;13750;50.804;8.764;2023-07-28T00:36:24;17.30;88.50
25953;DHT22;13750;50.804;8.764;2023-07-28T00:38:50;17.30;88.50
25953;DHT22;13750;50.804;8.764;2023-07-28T00:41:16;17.30;88.40
25953;DHT22;13750;50.804;8.764;2023-07-28T00:43:41;17.30;88.40
25953;DHT22;13750;50.804;8.764;2023-07-28T00:46:08;17.30;88.40
25953;DHT22;13750;50.804;8.764;2023-07-28T00:48:34;17.30;88.30
25953;DHT22;13750;50.804;8.764;2023-07-28T00:51:00;17.30;88.30
25953;DHT22;13750;50.804;8.764;2023-07-28T00:53:26;17.20;88.30
25953;DHT22;13750;50.804;8.764;2023-07-28T00:55:52;17.20;88.20
25953;DHT22;13750;50.804;8.764;2023-07-28T00:58:18;17.20;88.20
25953;DHT22;13750;50.804;8.764;2023-07-28T01:00:44;17.20;88.20
25953;DHT22;13750;50.804;8.764;2023-07-28T01:03:10;17.20;88.20
25953;DHT22;13750;50.804;8.764;2023-07-28T01:05:48;17.20;88.10
25953;DHT22;13750;50.804;8.764;2023-07-28T01:11:09;17.20;88.10
25953;DHT22;13750;50.804;8.764;2023-07-28T01:13:34;17.20;88.10
25953;DHT22;13750;50.804;8.764;2023-07-28T01:16:00;17.20;88.20
25953;DHT22;13750;50.804;8.764;2023-07-28T01:18:27;17.10;88.10
25953;DHT22;13750;50.804;8.764;2023-07-28T01:20:55;17.10;88.20
25953;DHT22;13750;50.804;8.764;2023-07-28T01:23:50;17.10;88.20
25953;DHT22;13750;50.804;8.764;2023-07-28T01:26:25;17.10;88.20
25953;DHT22;13750;50.804;8.764;2023-07-28T01:28:51;17.10;88.20
25953;DHT22;13750;50.804;8.764;2023-07-28T01:31:17;17.10;88.30
25953;DHT22;13750;50.804;8.764;2023-07-28T01:33:42;17.10;88.30
25953;DHT22;13750;50.804;8.764;2023-07-28T01:36:08;17.10;88.30
25953;DHT22;13750;50.804;8.764;2023-07-28T01:38:34;17.10;88.30
25953;DHT22;13750;50.804;8.764;2023-07-28T01:40:59;17.10;88.30
25953;DHT22;13750;50.804;8.764;2023-07-28T01:43:25;17.10;88.20
25953;DHT22;13750;50.804;8.764;2023-07-28T01:45:50;17.10;88.30
25953;DHT22;13750;50.804;8.764;2023-07-28T01:48:16;17.10;88.30
25953;DHT22;13750;50.804;8.764;2023-07-28T01:50:41;17.10;88.20
25953;DHT22;13750;50.804;8.764;2023-07-28T01:53:07;17.10;88.20
25953;DHT22;13750;50.804;8.764;2023-07-28T01:55:33;17.10;88.20
25953;DHT22;13750;50.804;8.764;2023-07-28T01:58:00;17.10;88.30
25953;DHT22;13750;50.804;8.764;2023-07-28T02:00:26;17.10;88.20
25953;DHT22;13750;50.804;8.764;2023-07-28T02:02:52;17.10;88.30
25953;DHT22;13750;50.804;8.764;2023-07-28T02:05:18;17.10;88.20
25953;DHT22;13750;50.804;8.764;2023-07-28T02:07:45;17.10;88.20
25953;DHT22;13750;50.804;8.764;2023-07-28T02:10:11;17.10;88.20
25953;DHT22;13750;50.804;8.764;2023-07-28T02:12:38;17.10;88.10
25953;DHT22;13750;50.804;8.764;2023-07-28T02:15:05;17.10;88.10
25953;DHT22;13750;50.804;8.764;2023-07-28T02:17:31;17.10;88.10
25953;DHT22;13750;50.804;8.764;2023-07-28T02:19:57;17.10;88.10
25953;DHT22;13750;50.804;8.764;2023-07-28T02:22:23;17.10;88.10
25953;DHT22;13750;50.804;8.764;2023-07-28T02:24:48;17.10;88.00
25953;DHT22;13750;50.804;8.764;2023-07-28T02:27:14;17.10;88.10
25953;DHT22;13750;50.804;8.764;2023-07-28T02:29:39;17.10;88.10
25953;DHT22;13750;50.804;8.764;2023-07-28T02:32:05;17.10;88.10
25953;DHT22;13750;50.804;8.764;2023-07-28T02:34:31;17.10;88.10
25953;DHT22;13750;50.804;8.764;2023-07-28T02:36:57;17.10;88.10
25953;DHT22;13750;50.804;8.764;2023-07-28T02:39:23;17.10;88.00
25953;DHT22;13750;50.804;8.764;2023-07-28T02:41:48;17.10;88.10
25953;DHT22;13750;50.804;8.764;2023-07-28T02:44:14;17.10;88.10
25953;DHT22;13750;50.804;8.764;2023-07-28T02:46:39;17.10;88.10
25953;DHT22;13750;50.804;8.764;2023-07-28T02:49:05;17.10;88.10
25953;DHT22;13750;50.804;8.764;2023-07-28T02:51:31;17.10;88.20
25953;DHT22;13750;50.804;8.764;2023-07-28T02:53:56;17.10;88.20
25953;DHT22;13750;50.804;8.764;2023-07-28T02:56:22;17.10;88.30
25953;DHT22;13750;50.804;8.764;2023-07-28T02:58:48;17.10;88.30
25953;DHT22;13750;50.804;8.764;2023-07-28T03:01:14;17.10;88.40
25953;DHT22;13750;50.804;8.764;2023-07-28T03:03:40;17.10;88.40
25953;DHT22;13750;50.804;8.764;2023-07-28T03:06:05;17.10;88.50
25953;DHT22;13750;50.804;8.764;2023-07-28T03:08:31;17.10;88.40
25953;DHT22;13750;50.804;8.764;2023-07-28T03:10:57;17.10;88.40
25953;DHT22;13750;50.804;8.764;2023-07-28T03:13:23;17.10;88.40
25953;DHT22;13750;50.804;8.764;2023-07-28T03:15:48;17.10;88.40
25953;DHT22;13750;50.804;8.764;2023-07-28T03:18:14;17.10;88.40
25953;DHT22;13750;50.804;8.764;2023-07-28T03:20:40;17.10;88.40
25953;DHT22;13750;50.804;8.764;2023-07-28T03:23:05;17.10;88.40
25953;DHT22;13750;50.804;8.764;2023-07-28T03:25:31;17.10;88.40
25953;DHT22;13750;50.804;8.764;2023-07-28T03:27:56;17.10;88.40
25953;DHT22;13750;50.804;8.764;2023-07-28T03:30:22;17.10;88.40
25953;DHT22;13750;50.804;8.764;2023-07-28T03:32:47;17.10;88.40
25953;DHT22;13750;50.804;8.764;2023-07-28T03:35:13;17.10;88.40
25953;DHT22;13750;50.804;8.764;2023-07-28T03:37:38;17.10;88.50
25953;DHT22;13750;50.804;8.764;2023-07-28T03:40:04;17.10;88.50
25953;DHT22;13750;50.804;8.764;2023-07-28T03:42:31;17.10;88.40
25953;DHT22;13750;50.804;8.764;2023-07-28T03:44:57;17.10;88.40
25953;DHT22;13750;50.804;8.764;2023-07-28T03:47:22;17.10;88.40
25953;DHT22;13750;50.804;8.764;2023-07-28T03:49:48;17.20;88.40
25953;DHT22;13750;50.804;8.764;2023-07-28T03:52:13;17.20;88.30
25953;DHT22;13750;50.804;8.764;2023-07-28T03:54:39;17.20;88.30
25953;DHT22;13750;50.804;8.764;2023-07-28T03:57:05;17.10;88.20
25953;DHT22;13750;50.804;8.764;2023-07-28T03:59:30;17.20;88.20
25953;DHT22;13750;50.804;8.764;2023-07-28T04:01:56;17.20;88.20
25953;DHT22;13750;50.804;8.764;2023-07-28T04:04:22;17.20;88.20
25953;DHT22;13750;50.804;8.764;2023-07-28T04:06:49;17.20;88.20
25953;DHT22;13750;50.804;8.764;2023-07-28T04:09:16;17.20;88.20
25953;DHT22;13750;50.804;8.764;2023-07-28T04:11:43;17.20;88.20
25953;DHT22;13750;50.804;8.764;2023-07-28T04:14:09;17.20;88.30
25953;DHT22;13750;50.804;8.764;2023-07-28T04:16:34;17.20;88.30
25953;DHT22;13750;50.804;8.764;2023-07-28T04:19:00;17.20;88.30
25953;DHT22;13750;50.804;8.764;2023-07-28T04:21:26;17.20;88.30
25953;DHT22;13750;50.804;8.764;2023-07-28T04:23:51;17.20;88.30
25953;DHT22;13750;50.804;8.764;2023-07-28T04:26:17;17.20;88.20
25953;DHT22;13750;50.804;8.764;2023-07-28T04:28:43;17.20;88.30
25953;DHT22;13750;50.804;8.764;2023-07-28T04:31:10;17.20;88.30
25953;DHT22;13750;50.804;8.764;2023-07-28T04:33:35;17.20;88.30
25953;DHT22;13750;50.804;8.764;2023-07-28T04:36:02;17.20;88.30
25953;DHT22;13750;50.804;8.764;2023-07-28T04:38:28;17.20;88.30
25953;DHT22;13750;50.804;8.764;2023-07-28T04:40:54;17.30;88.30
25953;DHT22;13750;50.804;8.764;2023-07-28T04:43:19;17.30;88.30
25953;DHT22;13750;50.804;8.764;2023-07-28T04:45:45;17.20;88.20
25953;DHT22;13750;50.804;8.764;2023-07-28T04:48:10;17.30;88.30
25953;DHT22;13750;50.804;8.764;2023-07-28T04:50:36;17.30;88.20
25953;DHT22;13750;50.804;8.764;2023-07-28T04:53:02;17.30;88.30
25953;DHT22;13750;50.804;8.764;2023-07-28T04:55:28;17.30;88.30
25953;DHT22;13750;50.804;8.764;2023-07-28T04:57:53;17.30;88.30
25953;DHT22;13750;50.804;8.764;2023-07-28T05:00:19;17.30;88.30
25953;DHT22;13750;50.804;8.764;2023-07-28T05:02:45;17.30;88.30
25953;DHT22;13750;50.804;8.764;2023-07-28T05:05:10;17.30;88.40
25953;DHT22;13750;50.804;8.764;2023-07-28T05:07:36;17.30;88.40
25953;DHT22;13750;50.804;8.764;2023-07-28T05:10:01;17.30;88.40
25953;DHT22;13750;50.804;8.764;2023-07-28T05:12:27;17.30;88.40
25953;DHT22;13750;50.804;8.764;2023-07-28T05:14:53;17.30;88.40
25953;DHT22;13750;50.804;8.764;2023-07-28T05:17:18;17.30;88.50
25953;DHT22;13750;50.804;8.764;2023-07-28T05:19:44;17.40;88.50
25953;DHT22;13750;50.804;8.764;2023-07-28T05:22:10;17.30;88.60
25953;DHT22;13750;50.804;8.764;2023-07-28T05:24:35;17.40;88.60
25953;DHT22;13750;50.804;8.764;2023-07-28T05:27:01;17.40;88.60
25953;DHT22;13750;50.804;8.764;2023-07-28T05:29:27;17.40;88.60
25953;DHT22;13750;50.804;8.764;2023-07-28T05:31:52;17.40;88.60
25953;DHT22;13750;50.804;8.764;2023-07-28T05:34:18;17.40;88.60
25953;DHT22;13750;50.804;8.764;2023-07-28T05:36:43;17.40;88.70
25953;DHT22;13750;50.804;8.764;2023-07-28T05:39:09;17.50;88.70
25953;DHT22;13750;50.804;8.764;2023-07-28T05:41:36;17.50;88.70
25953;DHT22;13750;50.804;8.764;2023-07-28T05:44:02;17.50;88.80
25953;DHT22;13750;50.804;8.764;2023-07-28T05:46:28;17.60;88.80
25953;DHT22;13750;50.804;8.764;2023-07-28T05:48:55;17.60;88.80
25953;DHT22;13750;50.804;8.764;2023-07-28T05:51:21;17.60;88.80
25953;DHT22;13750;50.804;8.764;2023-07-28T05:53:47;17.60;88.80
25953;DHT22;13750;50.804;8.764;2023-07-28T05:56:12;17.60;88.80
25953;DHT22;13750;50.804;8.764;2023-07-28T05:58:38;17.60;88.80
25953;DHT22;13750;50.804;8.764;2023-07-28T06:01:04;17.70;88.90
25953;DHT22;13750;50.804;8.764;2023-07-28T06:03:30;17.70;88.90
25953;DHT22;13750;50.804;8.764;2023-07-28T06:05:56;17.70;89.00
25953;DHT22;13750;50.804;8.764;2023-07-28T06:08:22;17.70;88.90
25953;DHT22;13750;50.804;8.764;2023-07-28T06:10:47;17.70;88.90
25953;DHT22;13750;50.804;8.764;2023-07-28T06:13:13;17.70;88.90
25953;DHT22;13750;50.804;8.764;2023-07-28T06:15:40;17.70;89.00
25953;DHT22;13750;50.804;8.764;2023-07-28T06:18:05;17.70;88.90
25953;DHT22;13750;50.804;8.764;2023-07-28T06:20:31;17.80;89.00
25953;DHT22;13750;50.804;8.764;2023-07-28T06:22:56;17.80;89.00
25953;DHT22;13750;50.804;8.764;2023-07-28T06:25:22;17.80;89.00
25953;DHT22;13750;50.804;8.764;2023-07-28T06:27:48;17.90;88.90
25953;DHT22;13750;50.804;8.764;2023-07-28T06:30:13;17.90;89.00
25953;DHT22;13750;50.804;8.764;2023-07-28T06:32:39;17.90;88.90
25953;DHT22;13750;50.804;8.764;2023-07-28T06:35:05;17.90;89.00
25953;DHT22;13750;50.804;8.764;2023-07-28T06:37:32;17.90;88.90
25953;DHT22;13750;50.804;8.764;2023-07-28T06:39:58;17.90;88.90
25953;DHT22;13750;50.804;8.764;2023-07-28T06:42:24;18.00;88.80
25953;DHT22;13750;50.804;8.764;2023-07-28T06:44:50;18.10;88.80
25953;DHT22;13750;50.804;8.764;2023-07-28T06:47:17;18.10;88.80
25953;DHT22;13750;50.804;8.764;2023-07-28T06:49:43;18.10;88.90
25953;DHT22;13750;50.804;8.764;2023-07-28T06:52:08;18.10;88.90
25953;DHT22;13750;50.804;8.764;2023-07-28T06:54:34;18.10;88.80
25953;DHT22;13750;50.804;8.764;2023-07-28T06:56:59;18.10;88.80
25953;DHT22;13750;50.804;8.764;2023-07-28T06:59:25;18.20;88.70
25953;DHT22;13750;50.804;8.764;2023-07-28T07:01:51;18.10;88.70
25953;DHT22;13750;50.804;8.764;2023-07-28T07:04:16;18.20;88.70
25953;DHT22;13750;50.804;8.764;2023-07-28T07:06:42;18.20;88.70
25953;DHT22;13750;50.804;8.764;2023-07-28T07:09:08;18.20;88.60
25953;DHT22;13750;50.804;8.764;2023-07-28T07:11:33;18.20;88.60
25953;DHT22;13750;50.804;8.764;2023-07-28T07:13:59;18.20;88.60
25953;DHT22;13750;50.804;8.764;2023-07-28T07:16:24;18.30;88.70
25953;DHT22;13750;50.804;8.764;2023-07-28T07:18:51;18.30;88.70
25953;DHT22;13750;50.804;8.764;2023-07-28T07:21:17;18.30;88.70
25953;DHT22;13750;50.804;8.764;2023-07-28T07:23:42;18.30;88.60
25953;DHT22;13750;50.804;8.764;2023-07-28T07:26:08;18.40;88.60
25953;DHT22;13750;50.804;8.764;2023-07-28T07:28:33;18.40;88.60
25953;DHT22;13750;50.804;8.764;2023-07-28T07:31:01;18.40;88.50
25953;DHT22;13750;50.804;8.764;2023-07-28T07:33:26;18.40;88.50
25953;DHT22;13750;50.804;8.764;2023-07-28T07:35:53;18.50;88.50
25953;DHT22;13750;50.804;8.764;2023-07-28T07:38:18;18.50;88.40
25953;DHT22;13750;50.804;8.764;2023-07-28T07:40:47;18.50;88.40
25953;DHT22;13750;50.804;8.764;2023-07-28T07:43:16;18.50;88.40
25953;DHT22;13750;50.804;8.764;2023-07-28T07:45:45;18.60;88.20
25953;DHT22;13750;50.804;8.764;2023-07-28T07:48:12;18.60;88.30
25953;DHT22;13750;50.804;8.764;2023-07-28T07:50:38;18.60;88.30
25953;DHT22;13750;50.804;8.764;2023-07-28T07:53:03;18.60;88.30
25953;DHT22;13750;50.804;8.764;2023-07-28T07:55:29;18.60;88.40
25953;DHT22;13750;50.804;8.764;2023-07-28T07:57:56;18.70;88.40
25953;DHT22;13750;50.804;8.764;2023-07-28T08:00:21;18.70;88.40
25953;DHT22;13750;50.804;8.764;2023-07-28T08:02:47;18.80;88.40
25953;DHT22;13750;50.804;8.764;2023-07-28T08:05:13;18.80;88.40
25953;DHT22;13750;50.804;8.764;2023-07-28T08:07:41;18.80;88.30
25953;DHT22;13750;50.804;8.764;2023-07-28T08:10:07;18.90;88.20
25953;DHT22;13750;50.804;8.764;2023-07-28T08:12:33;18.90;88.20
25953;DHT22;13750;50.804;8.764;2023-07-28T08:14:59;18.90;88.00
25953;DHT22;13750;50.804;8.764;2023-07-28T08:17:24;18.90;88.00
25953;DHT22;13750;50.804;8.764;2023-07-28T08:19:50;18.90;87.80
25953;DHT22;13750;50.804;8.764;2023-07-28T08:22:15;18.90;87.70
25953;DHT22;13750;50.804;8.764;2023-07-28T08:24:41;18.90;87.70
25953;DHT22;13750;50.804;8.764;2023-07-28T08:27:06;18.90;87.80
25953;DHT22;13750;50.804;8.764;2023-07-28T08:29:32;18.90;87.80
25953;DHT22;13750;50.804;8.764;2023-07-28T08:31:57;18.90;87.90
25953;DHT22;13750;50.804;8.764;2023-07-28T08:34:23;18.90;87.90
25953;DHT22;13750;50.804;8.764;2023-07-28T08:36:49;18.90;87.90
25953;DHT22;13750;50.804;8.764;2023-07-28T08:39:14;18.90;88.00
25953;DHT22;13750;50.804;8.764;2023-07-28T08:41:40;18.90;88.10
25953;DHT22;13750;50.804;8.764;2023-07-28T08:44:07;18.90;88.20
25953;DHT22;13750;50.804;8.764;2023-07-28T08:46:32;18.90;88.30
25953;DHT22;13750;50.804;8.764;2023-07-28T08:48:59;18.90;88.30
25953;DHT22;13750;50.804;8.764;2023-07-28T08:51:25;18.90;88.30
25953;DHT22;13750;50.804;8.764;2023-07-28T08:53:51;18.90;88.30
25953;DHT22;13750;50.804;8.764;2023-07-28T08:56:16;19.00;88.30
25953;DHT22;13750;50.804;8.764;2023-07-28T08:58:42;19.00;88.30
25953;DHT22;13750;50.804;8.764;2023-07-28T09:01:07;19.00;88.30
25953;DHT22;13750;50.804;8.764;2023-07-28T09:03:33;19.00;88.30
25953;DHT22;13750;50.804;8.764;2023-07-28T09:06:03;19.00;88.30
25953;DHT22;13750;50.804;8.764;2023-07-28T09:08:32;19.00;88.40
25953;DHT22;13750;50.804;8.764;2023-07-28T09:11:02;19.10;88.40
25953;DHT22;13750;50.804;8.764;2023-07-28T09:13:36;19.10;88.40
25953;DHT22;13750;50.804;8.764;2023-07-28T09:16:02;19.10;88.40
25953;DHT22;13750;50.804;8.764;2023-07-28T09:18:28;19.10;88.40
25953;DHT22;13750;50.804;8.764;2023-07-28T09:20:53;19.20;88.40
25953;DHT22;13750;50.804;8.764;2023-07-28T09:23:28;19.20;88.30
25953;DHT22;13750;50.804;8.764;2023-07-28T09:25:59;19.20;88.20
25953;DHT22;13750;50.804;8.764;2023-07-28T09:28:39;19.30;88.20
25953;DHT22;13750;50.804;8.764;2023-07-28T09:31:05;19.30;88.10
25953;DHT22;13750;50.804;8.764;2023-07-28T09:33:32;19.30;88.00
25953;DHT22;13750;50.804;8.764;2023-07-28T09:36:10;19.30;88.00
25953;DHT22;13750;50.804;8.764;2023-07-28T09:38:37;19.40;87.80
25953;DHT22;13750;50.804;8.764;2023-07-28T09:41:04;19.40;87.80
25953;DHT22;13750;50.804;8.764;2023-07-28T09:43:35;19.40;87.80
25953;DHT22;13750;50.804;8.764;2023-07-28T09:46:04;19.40;87.80
25953;DHT22;13750;50.804;8.764;2023-07-28T09:48:32;19.50;87.80
25953;DHT22;13750;50.804;8.764;2023-07-28T09:51:05;19.50;87.80
25953;DHT22;13750;50.804;8.764;2023-07-28T09:53:36;19.50;87.80
25953;DHT22;13750;50.804;8.764;2023-07-28T09:56:07;19.50;87.80
25953;DHT22;13750;50.804;8.764;2023-07-28T09:58:34;19.50;87.90
25953;DHT22;13750;50.804;8.764;2023-07-28T10:01:02;19.50;88.00
25953;DHT22;13750;50.804;8.764;2023-07-28T10:03:31;19.60;88.20
25953;DHT22;13750;50.804;8.764;2023-07-28T10:05:57;19.60;88.30
25953;DHT22;13750;50.804;8.764;2023-07-28T10:08:23;19.60;88.50
25953;DHT22;13750;50.804;8.764;2023-07-28T10:10:49;19.70;88.60
25953;DHT22;13750;50.804;8.764;2023-07-28T10:13:21;19.80;88.80
25953;DHT22;13750;50.804;8.764;2023-07-28T10:15:47;19.90;88.90
25953;DHT22;13750;50.804;8.764;2023-07-28T10:18:13;19.90;89.00
25953;DHT22;13750;50.804;8.764;2023-07-28T10:20:42;20.00;88.90
25953;DHT22;13750;50.804;8.764;2023-07-28T10:23:13;20.10;88.70
25953;DHT22;13750;50.804;8.764;2023-07-28T10:25:39;20.10;88.50
25953;DHT22;13750;50.804;8.764;2023-07-28T10:28:06;20.10;88.50
25953;DHT22;13750;50.804;8.764;2023-07-28T10:30:37;20.10;88.40
25953;DHT22;13750;50.804;8.764;2023-07-28T10:33:04;20.10;88.20
25953;DHT22;13750;50.804;8.764;2023-07-28T10:35:30;20.10;88.00
25953;DHT22;13750;50.804;8.764;2023-07-28T10:37:57;20.10;87.80
25953;DHT22;13750;50.804;8.764;2023-07-28T10:40:26;20.10;87.70
25953;DHT22;13750;50.804;8.764;2023-07-28T10:42:53;20.10;87.60
25953;DHT22;13750;50.804;8.764;2023-07-28T10:45:20;20.10;87.50
25953;DHT22;13750;50.804;8.764;2023-07-28T10:47:46;20.20;87.30
25953;DHT22;13750;50.804;8.764;2023-07-28T10:50:13;20.20;86.70
25953;DHT22;13750;50.804;8.764;2023-07-28T10:52:45;20.20;86.50
25953;DHT22;13750;50.804;8.764;2023-07-28T10:55:22;20.20;86.30
25953;DHT22;13750;50.804;8.764;2023-07-28T10:57:50;20.20;86.00
25953;DHT22;13750;50.804;8.764;2023-07-28T11:00:20;20.20;85.80
25953;DHT22;13750;50.804;8.764;2023-07-28T11:02:48;20.20;85.80
25953;DHT22;13750;50.804;8.764;2023-07-28T11:05:20;20.30;85.70
25953;DHT22;13750;50.804;8.764;2023-07-28T11:07:51;20.30;85.50
25953;DHT22;13750;50.804;8.764;2023-07-28T11:10:18;20.30;85.30
25953;DHT22;13750;50.804;8.764;2023-07-28T11:12:48;20.30;85.20
25953;DHT22;13750;50.804;8.764;2023-07-28T11:15:15;20.40;84.80
25953;DHT22;13750;50.804;8.764;2023-07-28T11:17:49;20.30;84.40
25953;DHT22;13750;50.804;8.764;2023-07-28T11:20:24;20.30;84.20
25953;DHT22;13750;50.804;8.764;2023-07-28T11:22:58;20.30;84.40
25953;DHT22;13750;50.804;8.764;2023-07-28T11:25:25;20.20;84.50
25953;DHT22;13750;50.804;8.764;2023-07-28T11:27:52;20.20;84.70
25953;DHT22;13750;50.804;8.764;2023-07-28T11:30:18;20.20;84.90
25953;DHT22;13750;50.804;8.764;2023-07-28T11:32:48;20.10;85.00
25953;DHT22;13750;50.804;8.764;2023-07-28T11:35:16;20.20;85.10
25953;DHT22;13750;50.804;8.764;2023-07-28T11:37:43;20.20;85.20
25953;DHT22;13750;50.804;8.764;2023-07-28T11:40:11;20.20;85.30
25953;DHT22;13750;50.804;8.764;2023-07-28T11:43:06;20.20;85.40
25953;DHT22;13750;50.804;8.764;2023-07-28T11:45:32;20.30;85.50
25953;DHT22;13750;50.804;8.764;2023-07-28T11:47:59;20.40;85.50
25953;DHT22;13750;50.804;8.764;2023-07-28T11:50:27;20.40;85.60
25953;DHT22;13750;50.804;8.764;2023-07-28T11:52:54;20.40;85.50
25953;DHT22;13750;50.804;8.764;2023-07-28T11:55:20;20.50;85.50
25953;DHT22;13750;50.804;8.764;2023-07-28T11:57:46;20.50;85.10
25953;DHT22;13750;50.804;8.764;2023-07-28T12:00:13;20.50;85.00
25953;DHT22;13750;50.804;8.764;2023-07-28T12:02:42;20.60;85.00
25953;DHT22;13750;50.804;8.764;2023-07-28T12:05:15;20.60;85.10
25953;DHT22;13750;50.804;8.764;2023-07-28T12:07:46;20.70;85.10
25953;DHT22;13750;50.804;8.764;2023-07-28T12:10:12;20.80;85.20
25953;DHT22;13750;50.804;8.764;2023-07-28T12:12:46;20.90;84.90
25953;DHT22;13750;50.804;8.764;2023-07-28T12:15:31;20.90;84.60
25953;DHT22;13750;50.804;8.764;2023-07-28T12:18:15;21.00;84.20
25953;DHT22;13750;50.804;8.764;2023-07-28T12:20:53;21.10;83.90
25953;DHT22;13750;50.804;8.764;2023-07-28T12:23:20;21.10;83.60
25953;DHT22;13750;50.804;8.764;2023-07-28T12:25:46;21.10;83.10
25953;DHT22;13750;50.804;8.764;2023-07-28T12:28:12;21.20;83.00
25953;DHT22;13750;50.804;8.764;2023-07-28T12:30:39;21.20;82.80
25953;DHT22;13750;50.804;8.764;2023-07-28T12:33:05;21.20;82.40
25953;DHT22;13750;50.804;8.764;2023-07-28T12:35:32;21.20;82.00
25953;DHT22;13750;50.804;8.764;2023-07-28T12:38:05;21.20;81.60
25953;DHT22;13750;50.804;8.764;2023-07-28T12:40:32;21.20;81.50
25953;DHT22;13750;50.804;8.764;2023-07-28T12:42:59;21.30;81.60
25953;DHT22;13750;50.804;8.764;2023-07-28T12:45:25;21.30;81.70
25953;DHT22;13750;50.804;8.764;2023-07-28T12:47:54;21.30;81.60
25953;DHT22;13750;50.804;8.764;2023-07-28T12:50:24;21.30;81.40
25953;DHT22;13750;50.804;8.764;2023-07-28T12:52:50;21.30;81.30
25953;DHT22;13750;50.804;8.764;2023-07-28T12:55:17;21.30;81.20
25953;DHT22;13750;50.804;8.764;2023-07-28T12:57:42;21.30;81.00
25953;DHT22;13750;50.804;8.764;2023-07-28T13:00:09;21.30;80.60
25953;DHT22;13750;50.804;8.764;2023-07-28T13:02:40;21.30;80.30
25953;DHT22;13750;50.804;8.764;2023-07-28T13:05:06;21.30;80.10
25953;DHT22;13750;50.804;8.764;2023-07-28T13:07:32;21.30;79.80
25953;DHT22;13750;50.804;8.764;2023-07-28T13:09:58;21.30;79.70
25953;DHT22;13750;50.804;8.764;2023-07-28T13:12:23;21.30;79.70
25953;DHT22;13750;50.804;8.764;2023-07-28T13:14:49;21.40;79.80
25953;DHT22;13750;50.804;8.764;2023-07-28T13:17:14;21.50;79.80
25953;DHT22;13750;50.804;8.764;2023-07-28T13:19:41;21.50;79.80
25953;DHT22;13750;50.804;8.764;2023-07-28T13:22:07;21.60;79.90
25953;DHT22;13750;50.804;8.764;2023-07-28T13:24:33;21.60;79.90
25953;DHT22;13750;50.804;8.764;2023-07-28T13:26:58;21.60;79.70
25953;DHT22;13750;50.804;8.764;2023-07-28T13:29:24;21.60;79.70
25953;DHT22;13750;50.804;8.764;2023-07-28T13:31:49;21.70;79.40
25953;DHT22;13750;50.804;8.764;2023-07-28T13:34:15;21.80;79.20
25953;DHT22;13750;50.804;8.764;2023-07-28T13:36:40;21.80;79.10
25953;DHT22;13750;50.804;8.764;2023-07-28T13:39:08;21.80;79.00
25953;DHT22;13750;50.804;8.764;2023-07-28T13:41:34;21.90;78.80
25953;DHT22;13750;50.804;8.764;2023-07-28T13:43:59;21.90;78.70
25953;DHT22;13750;50.804;8.764;2023-07-28T13:46:25;21.90;78.30
25953;DHT22;13750;50.804;8.764;2023-07-28T13:48:50;21.90;78.10
25953;DHT22;13750;50.804;8.764;2023-07-28T13:51:16;21.90;78.10
25953;DHT22;13750;50.804;8.764;2023-07-28T13:53:41;21.90;78.10
25953;DHT22;13750;50.804;8.764;2023-07-28T13:56:07;21.90;78.40
25953;DHT22;13750;50.804;8.764;2023-07-28T13:58:32;21.90;78.50
25953;DHT22;13750;50.804;8.764;2023-07-28T14:00:58;21.90;78.60
25953;DHT22;13750;50.804;8.764;2023-07-28T14:03:23;21.90;78.70
25953;DHT22;13750;50.804;8.764;2023-07-28T14:05:49;21.90;78.80
25953;DHT22;13750;50.804;8.764;2023-07-28T14:08:15;21.90;78.80
25953;DHT22;13750;50.804;8.764;2023-07-28T14:10:44;21.90;78.90
25953;DHT22;13750;50.804;8.764;2023-07-28T14:13:10;22.00;78.90
25953;DHT22;13750;50.804;8.764;2023-07-28T14:15:35;22.00;78.80
25953;DHT22;13750;50.804;8.764;2023-07-28T14:18:01;21.90;78.20
25953;DHT22;13750;50.804;8.764;2023-07-28T14:20:26;21.80;78.50
25953;DHT22;13750;50.804;8.764;2023-07-28T14:22:52;21.70;78.80
25953;DHT22;13750;50.804;8.764;2023-07-28T14:25:17;21.60;79.40
25953;DHT22;13750;50.804;8.764;2023-07-28T14:27:43;21.50;80.00
25953;DHT22;13750;50.804;8.764;2023-07-28T14:30:09;21.40;80.40
25953;DHT22;13750;50.804;8.764;2023-07-28T14:32:34;21.40;80.90
25953;DHT22;13750;50.804;8.764;2023-07-28T14:35:00;21.30;81.40
25953;DHT22;13750;50.804;8.764;2023-07-28T14:37:25;21.20;81.80
25953;DHT22;13750;50.804;8.764;2023-07-28T14:39:51;21.20;82.10
25953;DHT22;13750;50.804;8.764;2023-07-28T14:42:16;21.10;82.40
25953;DHT22;13750;50.804;8.764;2023-07-28T14:44:42;21.10;82.80
25953;DHT22;13750;50.804;8.764;2023-07-28T14:47:08;21.10;83.10
25953;DHT22;13750;50.804;8.764;2023-07-28T14:49:33;21.00;83.40
25953;DHT22;13750;50.804;8.764;2023-07-28T14:51:59;21.00;83.80
25953;DHT22;13750;50.804;8.764;2023-07-28T14:54:24;20.90;83.90
25953;DHT22;13750;50.804;8.764;2023-07-28T14:56:50;20.90;84.10
25953;DHT22;13750;50.804;8.764;2023-07-28T14:59:15;20.90;84.40
25953;DHT22;13750;50.804;8.764;2023-07-28T15:01:41;20.80;84.60
25953;DHT22;13750;50.804;8.764;2023-07-28T15:04:07;20.80;84.90
25953;DHT22;13750;50.804;8.764;2023-07-28T15:06:32;20.80;85.10
25953;DHT22;13750;50.804;8.764;2023-07-28T15:08:58;20.80;85.10
25953;DHT22;13750;50.804;8.764;2023-07-28T15:11:24;20.70;85.20
25953;DHT22;13750;50.804;8.764;2023-07-28T15:13:50;20.60;85.30
25953;DHT22;13750;50.804;8.764;2023-07-28T15:16:15;20.60;85.40
25953;DHT22;13750;50.804;8.764;2023-07-28T15:18:41;20.60;85.60
25953;DHT22;13750;50.804;8.764;2023-07-28T15:21:06;20.60;85.90
25953;DHT22;13750;50.804;8.764;2023-07-28T15:23:32;20.60;86.00
25953;DHT22;13750;50.804;8.764;2023-07-28T15:25:58;20.60;86.20
25953;DHT22;13750;50.804;8.764;2023-07-28T15:28:24;20.60;86.40
25953;DHT22;13750;50.804;8.764;2023-07-28T15:30:49;20.50;86.50